createdAt,value
2018-07-30T00:01:21.312Z,22.50
2018-07-30T00:03:51.089Z,22.40
2018-07-30T00:06:20.844Z,22.40
2018-07-30T00:08:50.622Z,22.50
2018-07-30T00:11:20.522Z,22.50
2018-07-30T00:13:50.355Z,22.50
2018-07-30T00:16:20.238Z,22.50
2018-07-30T00:18:50.036Z,22.40
2018-07-30T00:21:19.888Z,22.20
2018-07-30T00:23:49.668Z,22.10
2018-07-30T00:26:19.478Z,22.00
2018-07-30T00:28:49.333Z,21.90
2018-07-30T00:31:19.395Z,21.80
2018-07-30T00:33:49.305Z,21.90
2018-07-30T00:36:19.214Z,22.00
2018-07-30T00:38:49.993Z,22.00
2018-07-30T00:41:19.967Z,22.00
2018-07-30T00:43:49.958Z,22.00
2018-07-30T00:46:20.226Z,22.00
2018-07-30T00:48:50.033Z,22.10
2018-07-30T00:51:20.055Z,21.80
2018-07-30T00:53:49.922Z,21.80
2018-07-30T00:56:19.853Z,21.80
2018-07-30T00:58:49.691Z,21.80
2018-07-30T01:01:19.646Z,21.50
2018-07-30T01:03:49.840Z,21.30
2018-07-30T01:06:19.826Z,21.20
2018-07-30T01:08:49.700Z,21.10
2018-07-30T01:11:19.619Z,21.10
2018-07-30T01:13:49.502Z,21.00
2018-07-30T01:16:19.420Z,21.10
2018-07-30T01:18:49.276Z,21.10
2018-07-30T01:21:19.150Z,21.10
2018-07-30T01:23:48.972Z,21.20
2018-07-30T01:26:24.226Z,21.20
2018-07-30T01:28:54.112Z,21.30
2018-07-30T01:31:24.057Z,21.30
2018-07-30T01:33:54.059Z,21.20
2018-07-30T01:36:24.614Z,21.30
2018-07-30T01:38:54.770Z,21.40
2018-07-30T01:41:25.586Z,21.30
2018-07-30T01:43:55.427Z,21.20
2018-07-30T01:46:25.259Z,21.20
2018-07-30T01:48:55.072Z,21.10
2018-07-30T01:51:24.917Z,21.10
2018-07-30T01:53:54.784Z,21.10
2018-07-30T01:56:24.633Z,21.10
2018-07-30T01:58:54.843Z,21.10
2018-07-30T02:01:24.694Z,21.10
2018-07-30T02:03:54.547Z,20.90
2018-07-30T02:06:24.398Z,20.70
2018-07-30T02:08:54.320Z,20.70
2018-07-30T02:11:24.123Z,20.80
2018-07-30T02:13:53.994Z,20.70
2018-07-30T02:16:24.021Z,20.70
2018-07-30T02:18:54.709Z,20.50
2018-07-30T02:21:24.516Z,20.50
2018-07-30T02:23:54.335Z,20.50
2018-07-30T02:26:24.219Z,20.50
2018-07-30T02:28:54.019Z,20.50
2018-07-30T02:31:23.842Z,20.40
2018-07-30T02:33:53.620Z,20.50
2018-07-30T02:36:23.430Z,20.40
2018-07-30T02:38:53.221Z,20.50
2018-07-30T02:41:23.024Z,20.50
2018-07-30T02:43:52.837Z,20.40
2018-07-30T02:46:22.696Z,20.40
2018-07-30T02:48:52.537Z,20.40
2018-07-30T02:51:22.366Z,20.30
2018-07-30T02:53:52.187Z,20.20
2018-07-30T02:56:21.964Z,20.10
2018-07-30T02:58:52.202Z,20.10
2018-07-30T03:01:22.096Z,20.00
2018-07-30T03:03:51.985Z,20.10
2018-07-30T03:06:22.063Z,20.10
2018-07-30T03:08:51.939Z,20.10
2018-07-30T03:11:21.866Z,20.00
2018-07-30T03:13:51.600Z,19.90
2018-07-30T03:16:21.487Z,19.90
2018-07-30T03:18:51.303Z,19.90
2018-07-30T03:21:21.093Z,20.00
2018-07-30T03:23:50.872Z,20.10
2018-07-30T03:26:20.679Z,20.10
2018-07-30T03:28:50.565Z,20.10
2018-07-30T03:31:20.280Z,20.10
2018-07-30T03:33:50.121Z,20.00
2018-07-30T03:36:20.008Z,19.90
2018-07-30T03:38:49.774Z,19.70
2018-07-30T03:41:19.660Z,19.70
2018-07-30T03:43:49.476Z,19.50
2018-07-30T03:46:19.497Z,19.50
2018-07-30T03:48:49.281Z,19.40
2018-07-30T03:51:19.088Z,19.50
2018-07-30T03:53:48.994Z,19.50
2018-07-30T03:56:18.817Z,19.50
2018-07-30T03:58:48.672Z,19.50
2018-07-30T04:01:18.914Z,19.50
2018-07-30T04:03:55.643Z,19.50
2018-07-30T04:06:25.456Z,19.50
2018-07-30T04:08:55.198Z,19.50
2018-07-30T04:11:25.296Z,19.40
2018-07-30T04:13:55.083Z,19.40
2018-07-30T04:16:24.871Z,19.30
2018-07-30T04:18:54.642Z,19.40
2018-07-30T04:21:24.453Z,19.40
2018-07-30T04:23:54.282Z,19.50
2018-07-30T04:26:24.034Z,19.60
2018-07-30T04:28:53.828Z,19.50
2018-07-30T04:31:24.089Z,19.50
2018-07-30T04:33:54.337Z,19.60
2018-07-30T04:36:24.119Z,19.60
2018-07-30T04:38:54.050Z,19.50
2018-07-30T04:41:24.001Z,19.60
2018-07-30T04:43:53.894Z,19.70
2018-07-30T04:46:24.383Z,20.00
2018-07-30T04:48:54.263Z,20.20
2018-07-30T04:51:24.125Z,20.30
2018-07-30T04:53:53.972Z,20.30
2018-07-30T04:56:23.853Z,20.30
2018-07-30T04:58:53.967Z,20.30
2018-07-30T05:01:23.835Z,20.60
2018-07-30T05:03:53.768Z,20.80
2018-07-30T05:06:23.564Z,20.90
2018-07-30T05:11:22.839Z,21.10
2018-07-30T05:13:52.807Z,21.10
2018-07-30T05:16:22.573Z,21.20
2018-07-30T05:18:52.372Z,21.30
2018-07-30T05:21:22.219Z,21.40
2018-07-30T05:23:52.089Z,21.40
2018-07-30T05:26:21.841Z,20.90
2018-07-30T05:28:51.597Z,20.90
2018-07-30T05:31:21.416Z,20.80
2018-07-30T05:33:51.291Z,21.00
2018-07-30T05:36:21.072Z,21.20
2018-07-30T05:38:50.853Z,21.40
2018-07-30T05:41:20.688Z,21.60
2018-07-30T05:43:50.515Z,21.70
2018-07-30T05:46:20.283Z,21.80
2018-07-30T05:48:50.314Z,21.80
2018-07-30T05:51:20.174Z,21.90
2018-07-30T05:53:50.042Z,22.00
2018-07-30T05:56:19.922Z,22.20
2018-07-30T05:58:50.080Z,22.30
2018-07-30T06:01:19.850Z,22.40
2018-07-30T06:03:49.628Z,22.40
2018-07-30T06:06:19.453Z,22.40
2018-07-30T06:08:49.283Z,22.40
2018-07-30T06:11:19.105Z,22.40
2018-07-30T06:13:49.072Z,22.50
2018-07-30T06:16:18.892Z,22.60
2018-07-30T06:18:48.632Z,22.80
2018-07-30T06:21:18.525Z,22.90
2018-07-30T06:23:48.298Z,23.00
2018-07-30T06:26:18.269Z,23.00
2018-07-30T06:28:48.097Z,23.00
2018-07-30T06:31:18.129Z,23.00
2018-07-30T06:33:48.016Z,23.00
2018-07-30T06:36:17.870Z,23.00
2018-07-30T06:38:47.681Z,23.00
2018-07-30T06:41:18.396Z,23.10
2018-07-30T06:43:48.212Z,23.10
2018-07-30T06:46:18.019Z,23.20
2018-07-30T06:48:47.851Z,23.30
2018-07-30T06:51:17.792Z,23.50
2018-07-30T06:56:17.003Z,23.70
2018-07-30T06:58:47.046Z,23.80
2018-07-30T07:01:16.953Z,23.80
2018-07-30T07:03:47.536Z,23.90
2018-07-30T07:06:17.474Z,24.00
2018-07-30T07:08:47.355Z,24.20
2018-07-30T07:11:18.397Z,24.20
2018-07-30T07:13:48.442Z,24.30
2018-07-30T07:16:18.377Z,24.50
2018-07-30T07:18:48.308Z,24.60
2018-07-30T07:21:18.258Z,24.70
2018-07-30T07:23:48.163Z,24.80
2018-07-30T07:26:17.973Z,24.80
2018-07-30T07:28:47.823Z,24.90
2018-07-30T07:31:17.629Z,25.00
2018-07-30T07:33:47.557Z,25.10
2018-07-30T07:36:17.387Z,25.20
2018-07-30T07:38:47.150Z,25.30
2018-07-30T07:41:16.952Z,25.40
2018-07-30T07:43:47.060Z,25.60
2018-07-30T07:46:16.879Z,25.80
2018-07-30T07:48:46.708Z,25.90
2018-07-30T07:51:16.556Z,26.00
2018-07-30T07:53:46.330Z,26.20
2018-07-30T07:56:16.110Z,26.20
2018-07-30T07:58:45.870Z,26.40
2018-07-30T08:01:15.668Z,26.50
2018-07-30T08:03:45.565Z,26.60
2018-07-30T08:06:15.395Z,26.70
2018-07-30T08:08:45.168Z,26.70
2018-07-30T08:11:14.977Z,26.90
2018-07-30T08:13:44.773Z,27.00
2018-07-30T08:16:14.556Z,27.20
2018-07-30T08:18:44.302Z,27.40
2018-07-30T08:21:14.240Z,27.70
2018-07-30T08:23:44.099Z,28.00
2018-07-30T08:26:14.366Z,28.20
2018-07-30T08:28:44.277Z,28.60
2018-07-30T08:31:14.197Z,28.60
2018-07-30T08:33:44.007Z,28.70
2018-07-30T08:36:13.884Z,28.70
2018-07-30T08:38:44.141Z,28.70
2018-07-30T08:41:13.981Z,28.90
2018-07-30T08:43:43.874Z,29.00
2018-07-30T08:46:13.709Z,29.10
2018-07-30T08:48:43.661Z,28.90
2018-07-30T08:51:13.450Z,28.70
2018-07-30T08:53:43.395Z,28.50
2018-07-30T08:56:13.263Z,28.50
2018-07-30T08:58:43.085Z,28.50
2018-07-30T09:01:12.872Z,28.60
2018-07-30T09:03:42.696Z,28.80
2018-07-30T09:06:12.524Z,28.90
2018-07-30T09:08:42.392Z,29.20
2018-07-30T09:11:12.196Z,29.20
2018-07-30T09:13:42.088Z,29.20
2018-07-30T09:16:11.907Z,29.20
2018-07-30T09:18:41.733Z,29.30
2018-07-30T09:21:12.028Z,29.40
2018-07-30T09:23:41.911Z,29.50
2018-07-30T09:26:11.764Z,29.50
2018-07-30T09:28:41.736Z,29.50
2018-07-30T09:31:11.603Z,29.60
2018-07-30T09:33:41.461Z,29.70
2018-07-30T09:36:11.390Z,29.80
2018-07-30T09:38:41.216Z,29.90
2018-07-30T09:41:11.064Z,30.00
2018-07-30T09:43:40.884Z,30.10
2018-07-30T09:46:10.728Z,30.30
2018-07-30T09:48:40.661Z,30.40
2018-07-30T09:51:10.764Z,30.60
2018-07-30T09:53:40.676Z,30.90
2018-07-30T09:56:10.505Z,30.90
2018-07-30T09:58:40.341Z,31.00
2018-07-30T10:01:15.547Z,31.00
2018-07-30T10:03:45.478Z,31.10
2018-07-30T10:06:15.386Z,31.40
2018-07-30T10:08:45.477Z,31.40
2018-07-30T10:11:15.336Z,31.50
2018-07-30T10:13:45.250Z,31.70
2018-07-30T10:16:15.412Z,31.70
2018-07-30T10:18:45.289Z,31.90
2018-07-30T10:21:15.163Z,32.00
2018-07-30T10:23:45.076Z,32.10
2018-07-30T10:26:15.093Z,32.00
2018-07-30T10:28:44.900Z,32.10
2018-07-30T10:31:14.909Z,32.20
2018-07-30T10:33:44.789Z,32.20
2018-07-30T10:36:14.813Z,32.30
2018-07-30T10:38:44.694Z,32.60
2018-07-30T10:41:14.494Z,32.70
2018-07-30T10:43:44.307Z,32.50
2018-07-30T10:46:14.096Z,32.60
2018-07-30T10:48:43.901Z,32.60
2018-07-30T10:51:13.740Z,32.60
2018-07-30T10:53:43.574Z,32.60
2018-07-30T10:56:13.379Z,32.70
2018-07-30T10:58:43.166Z,33.30
2018-07-30T11:01:13.223Z,33.70
2018-07-30T11:03:43.023Z,33.90
2018-07-30T11:06:12.887Z,34.30
2018-07-30T11:08:43.385Z,34.50
2018-07-30T11:11:13.234Z,34.70
2018-07-30T11:13:43.073Z,35.10
2018-07-30T11:16:13.151Z,35.50
2018-07-30T11:18:42.951Z,35.90
2018-07-30T11:21:12.745Z,36.20
2018-07-30T11:23:42.553Z,36.40
2018-07-30T11:26:12.400Z,37.50
2018-07-30T11:28:42.220Z,39.20
2018-07-30T11:31:12.083Z,41.00
2018-07-30T11:33:41.875Z,42.00
2018-07-30T11:36:11.665Z,42.80
2018-07-30T11:38:41.494Z,42.80
2018-07-30T11:41:11.282Z,42.70
2018-07-30T11:43:41.149Z,43.00
2018-07-30T11:46:10.924Z,43.30
2018-07-30T11:48:40.710Z,44.20
2018-07-30T11:51:10.545Z,44.60
2018-07-30T11:53:40.524Z,44.20
2018-07-30T11:56:10.440Z,44.30
2018-07-30T11:58:40.300Z,45.70
2018-07-30T12:01:10.251Z,46.50
2018-07-30T12:03:40.068Z,46.70
2018-07-30T12:06:09.981Z,47.50
2018-07-30T12:08:39.799Z,47.70
2018-07-30T12:11:09.585Z,47.90
2018-07-30T12:13:39.462Z,49.10
2018-07-30T12:16:09.288Z,49.30
2018-07-30T12:18:39.124Z,49.10
2018-07-30T12:21:08.956Z,49.30
2018-07-30T12:23:38.800Z,49.00
2018-07-30T12:26:08.602Z,49.70
2018-07-30T12:28:38.453Z,49.40
2018-07-30T12:31:08.599Z,49.00
2018-07-30T12:33:38.409Z,49.40
2018-07-30T12:36:08.292Z,50.00
2018-07-30T12:38:38.167Z,49.80
2018-07-30T12:41:08.112Z,49.60
2018-07-30T12:43:37.933Z,51.00
2018-07-30T12:46:07.789Z,51.40
2018-07-30T12:48:37.669Z,49.90
2018-07-30T12:51:07.511Z,48.20
2018-07-30T12:53:37.324Z,48.00
2018-07-30T12:56:07.121Z,48.00
2018-07-30T13:01:06.298Z,46.60
2018-07-30T13:03:36.492Z,46.20
2018-07-30T13:06:06.372Z,46.60
2018-07-30T13:08:36.150Z,46.80
2018-07-30T13:11:05.977Z,46.90
2018-07-30T13:13:35.748Z,46.30
2018-07-30T13:16:05.568Z,45.00
2018-07-30T13:18:35.554Z,43.30
2018-07-30T13:21:05.438Z,43.00
2018-07-30T13:23:35.292Z,43.70
2018-07-30T13:26:05.239Z,45.80
2018-07-30T13:28:35.059Z,47.30
2018-07-30T13:31:04.891Z,46.90
2018-07-30T13:33:34.756Z,47.10
2018-07-30T13:36:04.660Z,47.90
2018-07-30T13:38:34.447Z,47.20
2018-07-30T13:41:04.304Z,46.90
2018-07-30T13:43:34.080Z,44.30
2018-07-30T13:46:03.877Z,41.90
2018-07-30T13:48:33.699Z,40.20
2018-07-30T13:51:03.547Z,39.50
2018-07-30T13:53:33.450Z,40.40
2018-07-30T13:56:03.317Z,42.80
2018-07-30T13:58:33.231Z,44.60
2018-07-30T14:01:03.043Z,44.60
2018-07-30T14:03:32.895Z,45.50
2018-07-30T14:06:02.698Z,46.90
2018-07-30T14:08:32.502Z,48.00
2018-07-30T14:11:02.287Z,48.00
2018-07-30T14:16:01.400Z,46.00
2018-07-30T14:18:31.240Z,45.20
2018-07-30T14:21:01.062Z,45.60
2018-07-30T14:23:30.897Z,45.90
2018-07-30T14:26:01.149Z,47.00
2018-07-30T14:28:31.015Z,47.70
2018-07-30T14:31:00.780Z,48.20
2018-07-30T14:33:30.567Z,48.10
2018-07-30T14:36:00.437Z,47.90
2018-07-30T14:38:30.567Z,48.00
2018-07-30T14:41:00.557Z,47.30
2018-07-30T14:43:30.398Z,47.30
2018-07-30T14:46:00.350Z,46.00
2018-07-30T14:48:30.263Z,45.10
2018-07-30T14:51:00.122Z,44.80
2018-07-30T14:53:29.913Z,45.10
2018-07-30T14:55:59.793Z,45.10
2018-07-30T14:58:29.655Z,45.30
2018-07-30T15:00:59.506Z,45.10
2018-07-30T15:03:29.552Z,43.60
2018-07-30T15:05:59.415Z,42.20
2018-07-30T15:08:29.262Z,40.60
2018-07-30T15:10:59.098Z,39.00
2018-07-30T15:13:29.155Z,38.30
2018-07-30T15:15:59.182Z,38.00
2018-07-30T15:18:28.952Z,38.00
2018-07-30T15:20:58.952Z,38.40
2018-07-30T15:23:28.784Z,37.90
2018-07-30T15:25:58.639Z,37.60
2018-07-30T15:28:28.468Z,37.70
2018-07-30T15:30:58.288Z,39.50
2018-07-30T15:33:28.366Z,42.50
2018-07-30T15:35:58.139Z,44.60
2018-07-30T15:40:59.118Z,45.00
2018-07-30T15:43:28.947Z,44.30
2018-07-30T15:45:58.782Z,44.60
2018-07-30T15:48:30.885Z,46.60
2018-07-30T15:51:00.678Z,47.90
2018-07-30T15:53:30.539Z,46.60
2018-07-30T15:56:00.369Z,47.50
2018-07-30T15:58:30.216Z,47.80
2018-07-30T16:01:00.111Z,46.90
2018-07-30T16:03:29.938Z,43.60
2018-07-30T16:05:59.740Z,43.30
2018-07-30T16:08:29.587Z,43.50
2018-07-30T16:10:59.410Z,44.40
2018-07-30T16:13:29.252Z,45.70
2018-07-30T16:15:59.135Z,46.70
2018-07-30T16:18:28.929Z,46.80
2018-07-30T16:20:58.720Z,47.50
2018-07-30T16:23:28.571Z,47.70
2018-07-30T16:25:58.416Z,48.40
2018-07-30T16:28:28.271Z,47.10
2018-07-30T16:30:58.056Z,44.50
2018-07-30T16:33:27.843Z,46.10
2018-07-30T16:35:57.631Z,47.00
2018-07-30T16:38:27.545Z,47.00
2018-07-30T16:40:57.466Z,47.00
2018-07-30T16:43:27.256Z,46.90
2018-07-30T16:45:57.100Z,44.90
2018-07-30T16:48:26.956Z,43.60
2018-07-30T16:50:56.843Z,42.60
2018-07-30T16:53:26.659Z,41.70
2018-07-30T16:55:56.488Z,40.90
2018-07-30T16:58:26.373Z,40.20
2018-07-30T17:00:56.150Z,39.40
2018-07-30T17:03:26.033Z,38.70
2018-07-30T17:05:55.798Z,37.80
2018-07-30T17:08:25.649Z,37.20
2018-07-30T17:10:55.411Z,36.70
2018-07-30T17:13:25.336Z,36.20
2018-07-30T17:15:55.145Z,36.10
2018-07-30T17:18:25.040Z,35.80
2018-07-30T17:20:54.836Z,35.50
2018-07-30T17:23:24.707Z,35.50
2018-07-30T17:25:54.549Z,35.50
2018-07-30T17:28:24.694Z,35.70
2018-07-30T17:30:53.978Z,35.90
2018-07-30T17:33:23.821Z,36.00
2018-07-30T17:35:53.641Z,36.30
2018-07-30T17:38:23.441Z,36.40
2018-07-30T17:40:53.241Z,36.40
2018-07-30T17:43:23.084Z,36.30
2018-07-30T17:45:53.004Z,36.10
2018-07-30T17:48:23.181Z,36.00
2018-07-30T17:50:53.052Z,35.90
2018-07-30T17:53:22.868Z,35.60
2018-07-30T17:55:52.694Z,35.50
2018-07-30T17:58:22.587Z,35.30
2018-07-30T18:00:52.564Z,35.10
2018-07-30T18:03:22.368Z,34.80
2018-07-30T18:05:52.238Z,34.40
2018-07-30T18:08:22.088Z,34.20
2018-07-30T18:10:51.991Z,34.10
2018-07-30T18:13:21.778Z,34.10
2018-07-30T18:15:51.623Z,33.80
2018-07-30T18:18:21.439Z,33.60
2018-07-30T18:20:51.316Z,33.40
2018-07-30T18:23:21.155Z,33.30
2018-07-30T18:25:50.949Z,33.20
2018-07-30T18:28:20.765Z,33.10
2018-07-30T18:33:19.970Z,32.70
2018-07-30T18:35:49.840Z,32.40
2018-07-30T18:38:19.718Z,32.30
2018-07-30T18:40:49.620Z,32.00
2018-07-30T18:43:19.364Z,31.80
2018-07-30T18:45:49.191Z,31.60
2018-07-30T18:48:19.123Z,31.50
2018-07-30T18:50:48.903Z,31.50
2018-07-30T18:53:19.101Z,31.40
2018-07-30T18:55:48.915Z,31.30
2018-07-30T18:58:18.741Z,31.20
2018-07-30T19:00:48.646Z,31.10
2018-07-30T19:03:18.468Z,31.00
2018-07-30T19:05:48.391Z,31.00
2018-07-30T19:08:18.258Z,30.80
2018-07-30T19:10:48.090Z,30.70
2018-07-30T19:15:47.221Z,30.30
2018-07-30T19:18:17.096Z,30.20
2018-07-30T19:20:46.903Z,30.00
2018-07-30T19:23:16.738Z,29.90
2018-07-30T19:25:46.556Z,29.90
2018-07-30T19:28:18.408Z,29.80
2018-07-30T19:30:48.332Z,29.80
2018-07-30T19:33:18.188Z,29.70
2018-07-30T19:35:47.995Z,29.50
2018-07-30T19:38:18.204Z,29.40
2018-07-30T19:40:48.028Z,29.30
2018-07-30T19:43:17.870Z,29.10
2018-07-30T19:45:48.531Z,29.00
2018-07-30T19:48:18.296Z,29.00
2018-07-30T19:50:48.103Z,29.00
2018-07-30T19:53:17.908Z,28.90
2018-07-30T19:55:47.688Z,28.80
2018-07-30T19:58:17.813Z,28.70
2018-07-30T20:00:47.357Z,28.60
2018-07-30T20:03:17.217Z,28.60
2018-07-30T20:05:47.024Z,28.50
2018-07-30T20:08:16.831Z,28.40
2018-07-30T20:10:46.624Z,28.40
2018-07-30T20:13:16.438Z,28.30
2018-07-30T20:15:46.213Z,28.30
2018-07-30T20:18:16.006Z,28.30
2018-07-30T20:20:45.844Z,28.20
2018-07-30T20:23:15.632Z,28.10
2018-07-30T20:25:45.449Z,28.00
2018-07-30T20:28:15.245Z,27.90
2018-07-30T20:30:45.002Z,27.90
2018-07-30T20:33:14.785Z,27.90
2018-07-30T20:35:44.573Z,27.90
2018-07-30T20:38:14.451Z,27.90
2018-07-30T20:40:44.341Z,27.80
2018-07-30T20:43:14.160Z,27.70
2018-07-30T20:45:43.929Z,27.60
2018-07-30T20:48:13.812Z,27.60
2018-07-30T20:50:43.603Z,27.60
2018-07-30T20:53:13.438Z,27.50
2018-07-30T20:55:43.246Z,27.50
2018-07-30T20:58:13.003Z,27.40
2018-07-30T21:00:42.874Z,27.20
2018-07-30T21:03:12.659Z,27.20
2018-07-30T21:05:42.443Z,27.10
2018-07-30T21:08:13.932Z,27.00
2018-07-30T21:10:45.108Z,26.90
2018-07-30T21:13:16.241Z,26.80
2018-07-30T21:15:46.361Z,26.80
2018-07-30T21:18:16.174Z,26.80
2018-07-30T21:20:45.957Z,26.60
2018-07-30T21:28:14.368Z,26.40
2018-07-30T21:30:44.212Z,26.40
2018-07-30T21:33:13.987Z,26.40
2018-07-30T21:35:43.797Z,26.30
2018-07-30T21:38:13.600Z,26.30
2018-07-30T21:40:43.379Z,26.30
2018-07-30T21:43:13.212Z,26.30
2018-07-30T21:45:43.029Z,26.10
2018-07-30T21:48:12.834Z,26.10
2018-07-30T21:50:42.640Z,26.00
2018-07-30T21:53:12.431Z,26.00
2018-07-30T21:55:42.264Z,25.90
2018-07-30T21:58:12.052Z,26.00
2018-07-30T22:00:46.072Z,25.80
2018-07-30T22:03:15.905Z,25.60
2018-07-30T22:05:48.484Z,25.60
2018-07-30T22:08:18.224Z,25.50
2018-07-30T22:10:48.053Z,25.50
2018-07-30T22:13:17.870Z,25.50
2018-07-30T22:15:47.905Z,25.50
2018-07-30T22:18:18.356Z,25.50
2018-07-30T22:20:48.431Z,25.40
2018-07-30T22:23:18.227Z,25.40
2018-07-30T22:25:48.176Z,25.30
2018-07-30T22:28:18.034Z,25.20
2018-07-30T22:30:47.950Z,25.00
2018-07-30T22:33:17.766Z,25.00
2018-07-30T22:35:47.789Z,25.00
2018-07-30T22:38:17.545Z,25.00
2018-07-30T22:40:47.347Z,24.90
2018-07-30T22:43:17.155Z,24.80
2018-07-30T22:45:47.148Z,24.70
2018-07-30T22:48:16.959Z,24.70
2018-07-30T22:50:46.736Z,24.70
2018-07-30T22:53:16.540Z,24.60
2018-07-30T22:55:46.301Z,24.60
2018-07-30T22:58:16.085Z,24.60
2018-07-30T23:00:45.929Z,24.50
2018-07-30T23:03:15.619Z,24.60
2018-07-30T23:05:45.411Z,24.60
2018-07-30T23:08:15.223Z,24.70
2018-07-30T23:10:45.049Z,24.80
2018-07-30T23:13:14.884Z,24.80
2018-07-30T23:15:44.658Z,24.80
2018-07-30T23:18:14.441Z,24.70
2018-07-30T23:20:44.187Z,24.60
2018-07-30T23:23:14.003Z,24.40
2018-07-30T23:25:43.810Z,24.20
2018-07-30T23:28:13.600Z,24.10
2018-07-30T23:30:43.358Z,24.10
2018-07-30T23:33:13.143Z,24.00
2018-07-30T23:35:42.901Z,24.00
2018-07-30T23:38:12.699Z,24.00
2018-07-30T23:40:42.448Z,24.00
2018-07-30T23:43:12.242Z,23.90
2018-07-30T23:45:42.034Z,23.90
2018-07-30T23:48:11.747Z,23.90
2018-07-30T23:50:41.542Z,24.00
2018-07-30T23:53:11.286Z,24.00
2018-07-30T23:55:41.078Z,24.10
2018-07-30T23:58:10.869Z,23.90
